PWSweather.com
Personal Weather Stations
Station Observations

ChardChardGB

Lat: 50.877408, Lon: -2.94964741

Elevation: 341

Station Type: WS3083

http://www.merriott-astro.co.uk/weather/index.htm

High Low Average
Temperature 58.3°F14.6°C 48.2°F9.0°C 51.7°F10.9°C
Dew Point 47.5°F8.6°C 43.3°F6.3°C 45.0°F7.2°C
Winds 5.2 mph 8.4 kmh 0.3 mph 0.5 kmh 2.0 mph SSW3.2 kmh SSW
Wind Gusts 7.6 mph12.2 kmh 0.7 mph1.1 kmh 4.0 mph6.4 kmh
Humidity 87% 65% 78%
Pressure 30.28 in1025.4 mb 30.14 in1020.7 mb -
Precipitation 0.00 in0.0 mm - -
Hour Temp Dew Point Humidity Winds Wind Gusts Pressure Precip Precip Rate Daily Precip Total
12:00 AM 48.7°F9.3°C 44.4°F6.9°C 85% 0.3 mph N0.5 kmh N 0.7 mph1.1 kmh 30.25 in1024.4 mb 0.00 in0.0 mm 0.00 in0.0 mm 0.00 in0.0 mm
12:10 AM 48.7°F9.3°C 44.4°F6.9°C 85% 0.6 mph NE1.0 kmh NE 1.6 mph2.6 kmh 30.25 in1024.4 mb 0.00 in0.0 mm 0.00 in0.0 mm 0.00 in0.0 mm
12:20 AM 48.9°F9.4°C 44.6°F7.0°C 85% 1.0 mph NNW1.6 kmh NNW 1.6 mph2.6 kmh 30.25 in1024.4 mb 0.00 in0.0 mm 0.00 in0.0 mm 0.00 in0.0 mm
12:30 AM 48.9°F9.4°C 44.6°F7.0°C 85% 1.0 mph WNW1.6 kmh WNW 2.2 mph3.5 kmh 30.25 in1024.4 mb 0.00 in0.0 mm 0.00 in0.0 mm 0.00 in0.0 mm
12:40 AM 49.1°F9.5°C 44.8°F7.1°C 85% 2.1 mph NW3.4 kmh NW 4.5 mph7.2 kmh 30.25 in1024.4 mb 0.00 in0.0 mm 0.00 in0.0 mm 0.00 in0.0 mm
12:50 AM 49.3°F9.6°C 45.0°F7.2°C 85% 2.3 mph W3.7 kmh W 3.8 mph6.1 kmh 30.25 in1024.4 mb 0.00 in0.0 mm 0.00 in0.0 mm 0.00 in0.0 mm
01:00 AM 49.3°F9.6°C 45.0°F7.2°C 85% 3.0 mph WNW4.8 kmh WNW 6.0 mph9.7 kmh 30.25 in1024.4 mb 0.00 in0.0 mm 0.00 in0.0 mm 0.00 in0.0 mm
01:10 AM 49.3°F9.6°C 45.0°F7.2°C 85% 4.1 mph W6.6 kmh W 6.0 mph9.7 kmh 30.25 in1024.4 mb 0.00 in0.0 mm 0.00 in0.0 mm 0.00 in0.0 mm
01:20 AM 49.5°F9.7°C 45.1°F7.3°C 85% 3.5 mph NW5.6 kmh NW 5.4 mph8.7 kmh 30.25 in1024.4 mb 0.00 in0.0 mm 0.00 in0.0 mm 0.00 in0.0 mm
01:30 AM 49.5°F9.7°C 45.1°F7.3°C 85% 2.2 mph SW3.5 kmh SW 3.1 mph5.0 kmh 30.25 in1024.4 mb 0.00 in0.0 mm 0.00 in0.0 mm 0.00 in0.0 mm
01:40 AM 49.5°F9.7°C 44.8°F7.1°C 84% 1.5 mph W2.4 kmh W 3.1 mph5.0 kmh 30.25 in1024.4 mb 0.00 in0.0 mm 0.00 in0.0 mm 0.00 in0.0 mm
01:50 AM 49.5°F9.7°C 44.8°F7.1°C 84% 1.9 mph SW3.1 kmh SW 3.1 mph5.0 kmh 30.25 in1024.4 mb 0.00 in0.0 mm 0.00 in0.0 mm 0.00 in0.0 mm
02:00 AM 49.5°F9.7°C 44.5°F6.9°C 83% 1.5 mph WNW2.4 kmh WNW 3.1 mph5.0 kmh 30.25 in1024.4 mb 0.00 in0.0 mm 0.00 in0.0 mm 0.00 in0.0 mm
02:10 AM 49.3°F9.6°C 44.3°F6.8°C 83% 1.6 mph W2.6 kmh W 3.1 mph5.0 kmh 30.24 in1024.0 mb 0.00 in0.0 mm 0.00 in0.0 mm 0.00 in0.0 mm
02:20 AM 49.3°F9.6°C 44.3°F6.8°C 83% 0.9 mph NW1.4 kmh NW 2.2 mph3.5 kmh 30.24 in1024.0 mb 0.00 in0.0 mm 0.00 in0.0 mm 0.00 in0.0 mm
02:30 AM 48.9°F9.4°C 44.0°F6.7°C 83% 1.4 mph SW2.3 kmh SW 2.2 mph3.5 kmh 30.24 in1024.0 mb 0.00 in0.0 mm 0.00 in0.0 mm 0.00 in0.0 mm
02:40 AM 48.6°F9.2°C 43.6°F6.4°C 83% 0.4 mph S0.6 kmh S 0.7 mph1.1 kmh 30.24 in1024.0 mb 0.00 in0.0 mm 0.00 in0.0 mm 0.00 in0.0 mm
02:50 AM 48.4°F9.1°C 43.5°F6.4°C 83% 0.9 mph WSW1.4 kmh WSW 2.2 mph3.5 kmh 30.23 in1023.7 mb 0.00 in0.0 mm 0.00 in0.0 mm 0.00 in0.0 mm
03:00 AM 48.4°F9.1°C 43.5°F6.4°C 83% 1.1 mph W1.8 kmh W 1.6 mph2.6 kmh 30.23 in1023.7 mb 0.00 in0.0 mm 0.00 in0.0 mm 0.00 in0.0 mm
03:10 AM 48.2°F9.0°C 43.3°F6.3°C 83% 0.5 mph WSW0.8 kmh WSW 1.6 mph2.6 kmh 30.23 in1023.7 mb 0.00 in0.0 mm 0.00 in0.0 mm 0.00 in0.0 mm
03:20 AM 48.4°F9.1°C 43.5°F6.4°C 83% 0.9 mph SSW1.4 kmh SSW 1.6 mph2.6 kmh 30.22 in1023.4 mb 0.00 in0.0 mm 0.00 in0.0 mm 0.00 in0.0 mm
03:30 AM 48.6°F9.2°C 43.6°F6.4°C 83% 1.9 mph WSW3.1 kmh WSW 3.1 mph5.0 kmh 30.23 in1023.7 mb 0.00 in0.0 mm 0.00 in0.0 mm 0.00 in0.0 mm
03:40 AM 48.6°F9.2°C 43.6°F6.4°C 83% 0.4 mph WSW0.6 kmh WSW 1.6 mph2.6 kmh 30.23 in1023.7 mb 0.00 in0.0 mm 0.00 in0.0 mm 0.00 in0.0 mm
03:50 AM 48.6°F9.2°C 43.6°F6.4°C 83% 0.7 mph SW1.1 kmh SW 1.6 mph2.6 kmh 30.22 in1023.4 mb 0.00 in0.0 mm 0.00 in0.0 mm 0.00 in0.0 mm
04:00 AM 48.6°F9.2°C 43.6°F6.4°C 83% 0.4 mph SSW0.6 kmh SSW 1.6 mph2.6 kmh 30.23 in1023.7 mb 0.00 in0.0 mm 0.00 in0.0 mm 0.00 in0.0 mm
04:10 AM 48.6°F9.2°C 43.6°F6.4°C 83% 1.2 mph SW1.9 kmh SW 2.2 mph3.5 kmh 30.23 in1023.7 mb 0.00 in0.0 mm 0.00 in0.0 mm 0.00 in0.0 mm
04:20 AM 48.6°F9.2°C 44.0°F6.7°C 84% 1.5 mph SSW2.4 kmh SSW 2.2 mph3.5 kmh 30.22 in1023.4 mb 0.00 in0.0 mm 0.00 in0.0 mm 0.00 in0.0 mm
04:30 AM 48.6°F9.2°C 44.0°F6.7°C 84% 1.7 mph SSW2.7 kmh SSW 3.1 mph5.0 kmh 30.23 in1023.7 mb 0.00 in0.0 mm 0.00 in0.0 mm 0.00 in0.0 mm
04:40 AM 48.6°F9.2°C 44.0°F6.7°C 84% 2.3 mph S3.7 kmh S 3.1 mph5.0 kmh 30.23 in1023.7 mb 0.00 in0.0 mm 0.00 in0.0 mm 0.00 in0.0 mm
04:50 AM 48.4°F9.1°C 43.8°F6.6°C 84% 2.2 mph S3.5 kmh S 3.8 mph6.1 kmh 30.24 in1024.0 mb 0.00 in0.0 mm 0.00 in0.0 mm 0.00 in0.0 mm
05:00 AM 48.4°F9.1°C 43.8°F6.6°C 84% 1.0 mph SSW1.6 kmh SSW 2.2 mph3.5 kmh 30.24 in1024.0 mb 0.00 in0.0 mm 0.00 in0.0 mm 0.00 in0.0 mm
05:10 AM 48.4°F9.1°C 44.1°F6.7°C 85% 1.6 mph S2.6 kmh S 3.8 mph6.1 kmh 30.23 in1023.7 mb 0.00 in0.0 mm 0.00 in0.0 mm 0.00 in0.0 mm
05:20 AM 48.4°F9.1°C 44.1°F6.7°C 85% 1.5 mph SSW2.4 kmh SSW 3.1 mph5.0 kmh 30.24 in1024.0 mb 0.00 in0.0 mm 0.00 in0.0 mm 0.00 in0.0 mm
05:30 AM 48.4°F9.1°C 44.1°F6.7°C 85% 0.4 mph WSW0.6 kmh WSW 0.7 mph1.1 kmh 30.24 in1024.0 mb 0.00 in0.0 mm 0.00 in0.0 mm 0.00 in0.0 mm
05:40 AM 48.4°F9.1°C 44.1°F6.7°C 85% 1.1 mph SE1.8 kmh SE 2.2 mph3.5 kmh 30.24 in1024.0 mb 0.00 in0.0 mm 0.00 in0.0 mm 0.00 in0.0 mm
05:50 AM 48.4°F9.1°C 44.1°F6.7°C 85% 1.9 mph SW3.1 kmh SW 3.1 mph5.0 kmh 30.25 in1024.4 mb 0.00 in0.0 mm 0.00 in0.0 mm 0.00 in0.0 mm
06:00 AM 48.4°F9.1°C 44.1°F6.7°C 85% 1.7 mph SSW2.7 kmh SSW 3.1 mph5.0 kmh 30.25 in1024.4 mb 0.00 in0.0 mm 0.00 in0.0 mm 0.00 in0.0 mm
06:10 AM 48.4°F9.1°C 44.4°F6.9°C 86% 1.8 mph SSW2.9 kmh SSW 3.1 mph5.0 kmh 30.25 in1024.4 mb 0.00 in0.0 mm 0.00 in0.0 mm 0.00 in0.0 mm
06:20 AM 48.4°F9.1°C 44.4°F6.9°C 86% 1.2 mph SSW1.9 kmh SSW 2.2 mph3.5 kmh 30.25 in1024.4 mb 0.00 in0.0 mm 0.00 in0.0 mm 0.00 in0.0 mm
06:30 AM 48.6°F9.2°C 44.6°F7.0°C 86% 1.1 mph S1.8 kmh S 1.6 mph2.6 kmh 30.25 in1024.4 mb 0.00 in0.0 mm 0.00 in0.0 mm 0.00 in0.0 mm
06:40 AM 48.6°F9.2°C 44.6°F7.0°C 86% 0.9 mph SSW1.4 kmh SSW 1.6 mph2.6 kmh 30.26 in1024.7 mb 0.00 in0.0 mm 0.00 in0.0 mm 0.00 in0.0 mm
06:50 AM 48.7°F9.3°C 44.7°F7.1°C 86% 0.7 mph SW1.1 kmh SW 1.6 mph2.6 kmh 30.26 in1024.7 mb 0.00 in0.0 mm 0.00 in0.0 mm 0.00 in0.0 mm
07:00 AM 48.9°F9.4°C 44.9°F7.2°C 86% 1.8 mph S2.9 kmh S 2.2 mph3.5 kmh 30.25 in1024.4 mb 0.00 in0.0 mm 0.00 in0.0 mm 0.00 in0.0 mm
07:10 AM 48.9°F9.4°C 45.2°F7.3°C 87% 2.3 mph S3.7 kmh S 3.8 mph6.1 kmh 30.25 in1024.4 mb 0.00 in0.0 mm 0.00 in0.0 mm 0.00 in0.0 mm
07:20 AM 49.1°F9.5°C 45.4°F7.4°C 87% 1.8 mph SSW2.9 kmh SSW 3.8 mph6.1 kmh 30.26 in1024.7 mb 0.00 in0.0 mm 0.00 in0.0 mm 0.00 in0.0 mm
07:30 AM 49.6°F9.8°C 45.9°F7.7°C 87% 1.3 mph SSW2.1 kmh SSW 2.2 mph3.5 kmh 30.26 in1024.7 mb 0.00 in0.0 mm 0.00 in0.0 mm 0.00 in0.0 mm
07:40 AM 49.5°F9.7°C 45.8°F7.7°C 87% 2.8 mph SW4.5 kmh SW 3.8 mph6.1 kmh 30.27 in1025.1 mb 0.00 in0.0 mm 0.00 in0.0 mm 0.00 in0.0 mm
07:50 AM 49.6°F9.8°C 45.9°F7.7°C 87% 2.3 mph SSW3.7 kmh SSW 3.1 mph5.0 kmh 30.27 in1025.1 mb 0.00 in0.0 mm 0.00 in0.0 mm 0.00 in0.0 mm
08:00 AM 49.8°F9.9°C 46.1°F7.8°C 87% 2.4 mph S3.9 kmh S 3.8 mph6.1 kmh 30.27 in1025.1 mb 0.00 in0.0 mm 0.00 in0.0 mm 0.00 in0.0 mm
08:10 AM 50.4°F10.2°C 46.6°F8.1°C 87% 2.3 mph SSW3.7 kmh SSW 3.1 mph5.0 kmh 30.27 in1025.1 mb 0.00 in0.0 mm 0.00 in0.0 mm 0.00 in0.0 mm
08:20 AM 50.7°F10.4°C 46.7°F8.2°C 86% 2.7 mph S4.3 kmh S 3.8 mph6.1 kmh 30.27 in1025.1 mb 0.00 in0.0 mm 0.00 in0.0 mm 0.00 in0.0 mm
08:30 AM 51.1°F10.6°C 47.0°F8.3°C 86% 2.8 mph S4.5 kmh S 5.4 mph8.7 kmh 30.27 in1025.1 mb 0.00 in0.0 mm 0.00 in0.0 mm 0.00 in0.0 mm
08:40 AM 51.4°F10.8°C 47.1°F8.4°C 85% 2.4 mph SSW3.9 kmh SSW 4.5 mph7.2 kmh 30.27 in1025.1 mb 0.00 in0.0 mm 0.00 in0.0 mm 0.00 in0.0 mm
08:50 AM 51.8°F11.0°C 47.1°F8.4°C 84% 2.6 mph S4.2 kmh S 3.1 mph5.0 kmh 30.28 in1025.4 mb 0.00 in0.0 mm 0.00 in0.0 mm 0.00 in0.0 mm
09:00 AM 52.3°F11.3°C 47.3°F8.5°C 83% 2.4 mph SSW3.9 kmh SSW 3.8 mph6.1 kmh 30.27 in1025.1 mb 0.00 in0.0 mm 0.00 in0.0 mm 0.00 in0.0 mm
09:10 AM 52.9°F11.6°C 47.5°F8.6°C 82% 2.5 mph S4.0 kmh S 5.4 mph8.7 kmh 30.27 in1025.1 mb 0.00 in0.0 mm 0.00 in0.0 mm 0.00 in0.0 mm
09:20 AM 53.2°F11.8°C 47.2°F8.4°C 80% 3.1 mph SW5.0 kmh SW 5.4 mph8.7 kmh 30.28 in1025.4 mb 0.00 in0.0 mm 0.00 in0.0 mm 0.00 in0.0 mm
09:30 AM 53.6°F12.0°C 47.3°F8.5°C 79% 2.5 mph S4.0 kmh S 4.5 mph7.2 kmh 30.28 in1025.4 mb 0.00 in0.0 mm 0.00 in0.0 mm 0.00 in0.0 mm
09:40 AM 54.7°F12.6°C 46.9°F8.3°C 75% 2.4 mph SW3.9 kmh SW 3.8 mph6.1 kmh 30.28 in1025.4 mb 0.00 in0.0 mm 0.00 in0.0 mm 0.00 in0.0 mm
09:50 AM 54.5°F12.5°C 45.7°F7.6°C 72% 2.9 mph NE4.7 kmh NE 3.8 mph6.1 kmh 30.28 in1025.4 mb 0.00 in0.0 mm 0.00 in0.0 mm 0.00 in0.0 mm
10:00 AM 54.9°F12.7°C 46.0°F7.8°C 72% 2.3 mph NW3.7 kmh NW 3.1 mph5.0 kmh 30.27 in1025.1 mb 0.00 in0.0 mm 0.00 in0.0 mm 0.00 in0.0 mm
10:10 AM 55.4°F13.0°C 46.2°F7.9°C 71% 2.5 mph NW4.0 kmh NW 5.4 mph8.7 kmh 30.27 in1025.1 mb 0.00 in0.0 mm 0.00 in0.0 mm 0.00 in0.0 mm
10:20 AM 55.6°F13.1°C 46.3°F7.9°C 71% 2.0 mph N3.2 kmh N 3.8 mph6.1 kmh 30.27 in1025.1 mb 0.00 in0.0 mm 0.00 in0.0 mm 0.00 in0.0 mm
10:30 AM 55.2°F12.9°C 45.6°F7.6°C 70% 3.0 mph NE4.8 kmh NE 4.5 mph7.2 kmh 30.27 in1025.1 mb 0.00 in0.0 mm 0.00 in0.0 mm 0.00 in0.0 mm
10:40 AM 55.4°F13.0°C 45.4°F7.4°C 69% 3.1 mph NNE5.0 kmh NNE 5.4 mph8.7 kmh 30.27 in1025.1 mb 0.00 in0.0 mm 0.00 in0.0 mm 0.00 in0.0 mm
10:50 AM 55.6°F13.1°C 45.6°F7.6°C 69% 2.2 mph NE3.5 kmh NE 4.5 mph7.2 kmh 30.27 in1025.1 mb 0.00 in0.0 mm 0.00 in0.0 mm 0.00 in0.0 mm
11:00 AM 55.9°F13.3°C 45.9°F7.7°C 69% 1.9 mph NW3.1 kmh NW 3.1 mph5.0 kmh 30.27 in1025.1 mb 0.00 in0.0 mm 0.00 in0.0 mm 0.00 in0.0 mm
11:10 AM 56.3°F13.5°C 46.3°F7.9°C 69% 1.4 mph NW2.3 kmh NW 3.1 mph5.0 kmh 30.27 in1025.1 mb 0.00 in0.0 mm 0.00 in0.0 mm 0.00 in0.0 mm
11:20 AM 56.3°F13.5°C 45.9°F7.7°C 68% 1.9 mph WNW3.1 kmh WNW 3.8 mph6.1 kmh 30.27 in1025.1 mb 0.00 in0.0 mm 0.00 in0.0 mm 0.00 in0.0 mm
11:30 AM 57.0°F13.9°C 47.0°F8.3°C 69% 2.1 mph W3.4 kmh W 3.1 mph5.0 kmh 30.28 in1025.4 mb 0.00 in0.0 mm 0.00 in0.0 mm 0.00 in0.0 mm
11:40 AM 57.9°F14.4°C 47.0°F8.3°C 67% 1.8 mph NW2.9 kmh NW 3.1 mph5.0 kmh 30.27 in1025.1 mb 0.00 in0.0 mm 0.00 in0.0 mm 0.00 in0.0 mm
11:50 AM 57.6°F14.2°C 45.9°F7.7°C 65% 2.1 mph SE3.4 kmh SE 3.8 mph6.1 kmh 30.27 in1025.1 mb 0.00 in0.0 mm 0.00 in0.0 mm 0.00 in0.0 mm
12:00 PM 57.4°F14.1°C 46.1°F7.8°C 66% 2.4 mph NE3.9 kmh NE 4.5 mph7.2 kmh 30.27 in1025.1 mb 0.00 in0.0 mm 0.00 in0.0 mm 0.00 in0.0 mm
12:10 PM 57.2°F14.0°C 45.6°F7.6°C 65% 3.0 mph NW4.8 kmh NW 4.5 mph7.2 kmh 30.26 in1024.7 mb 0.00 in0.0 mm 0.00 in0.0 mm 0.00 in0.0 mm
12:20 PM 57.6°F14.2°C 46.7°F8.2°C 67% 2.1 mph NW3.4 kmh NW 3.1 mph5.0 kmh 30.27 in1025.1 mb 0.00 in0.0 mm 0.00 in0.0 mm 0.00 in0.0 mm
12:30 PM 58.3°F14.6°C 46.6°F8.1°C 65% 1.7 mph NW2.7 kmh NW 3.1 mph5.0 kmh 30.26 in1024.7 mb 0.00 in0.0 mm 0.00 in0.0 mm 0.00 in0.0 mm
12:40 PM 58.1°F14.5°C 46.4°F8.0°C 65% 2.1 mph NW3.4 kmh NW 3.8 mph6.1 kmh 30.26 in1024.7 mb 0.00 in0.0 mm 0.00 in0.0 mm 0.00 in0.0 mm
12:50 PM 57.4°F14.1°C 46.1°F7.8°C 66% 2.6 mph NW4.2 kmh NW 3.8 mph6.1 kmh 30.27 in1025.1 mb 0.00 in0.0 mm 0.00 in0.0 mm 0.00 in0.0 mm
01:00 PM 57.4°F14.1°C 46.5°F8.1°C 67% 2.1 mph NW3.4 kmh NW 3.8 mph6.1 kmh 30.26 in1024.7 mb 0.00 in0.0 mm 0.00 in0.0 mm 0.00 in0.0 mm
01:10 PM 57.6°F14.2°C 47.1°F8.4°C 68% 1.9 mph SSE3.1 kmh SSE 3.8 mph6.1 kmh 30.25 in1024.4 mb 0.00 in0.0 mm 0.00 in0.0 mm 0.00 in0.0 mm
01:20 PM 56.8°F13.8°C 46.4°F8.0°C 68% 2.6 mph SSE4.2 kmh SSE 3.8 mph6.1 kmh 30.24 in1024.0 mb 0.00 in0.0 mm 0.00 in0.0 mm 0.00 in0.0 mm
01:30 PM 56.3°F13.5°C 46.3°F7.9°C 69% 1.8 mph ESE2.9 kmh ESE 3.8 mph6.1 kmh 30.24 in1024.0 mb 0.00 in0.0 mm 0.00 in0.0 mm 0.00 in0.0 mm
01:40 PM 56.3°F13.5°C 46.7°F8.2°C 70% 2.1 mph SE3.4 kmh SE 3.8 mph6.1 kmh 30.24 in1024.0 mb 0.00 in0.0 mm 0.00 in0.0 mm 0.00 in0.0 mm
01:50 PM 55.9°F13.3°C 46.3°F7.9°C 70% 2.2 mph S3.5 kmh S 3.1 mph5.0 kmh 30.23 in1023.7 mb 0.00 in0.0 mm 0.00 in0.0 mm 0.00 in0.0 mm
02:00 PM 55.9°F13.3°C 46.3°F7.9°C 70% 1.7 mph ENE2.7 kmh ENE 2.2 mph3.5 kmh 30.23 in1023.7 mb 0.00 in0.0 mm 0.00 in0.0 mm 0.00 in0.0 mm
02:10 PM 56.3°F13.5°C 47.0°F8.3°C 71% 1.5 mph NNE2.4 kmh NNE 2.2 mph3.5 kmh 30.23 in1023.7 mb 0.00 in0.0 mm 0.00 in0.0 mm 0.00 in0.0 mm
02:20 PM 56.8°F13.8°C 47.2°F8.4°C 70% 2.0 mph NE3.2 kmh NE 3.8 mph6.1 kmh 30.23 in1023.7 mb 0.00 in0.0 mm 0.00 in0.0 mm 0.00 in0.0 mm
02:30 PM 57.4°F14.1°C 47.3°F8.5°C 69% 1.5 mph ESE2.4 kmh ESE 3.1 mph5.0 kmh 30.22 in1023.4 mb 0.00 in0.0 mm 0.00 in0.0 mm 0.00 in0.0 mm
02:40 PM 57.6°F14.2°C 47.5°F8.6°C 69% 1.7 mph S2.7 kmh S 3.8 mph6.1 kmh 30.22 in1023.4 mb 0.00 in0.0 mm 0.00 in0.0 mm 0.00 in0.0 mm
02:50 PM 57.4°F14.1°C 46.5°F8.1°C 67% 2.0 mph S3.2 kmh S 3.1 mph5.0 kmh 30.21 in1023.0 mb 0.00 in0.0 mm 0.00 in0.0 mm 0.00 in0.0 mm
03:00 PM 56.8°F13.8°C 46.8°F8.2°C 69% 2.9 mph SSW4.7 kmh SSW 5.4 mph8.7 kmh 30.21 in1023.0 mb 0.00 in0.0 mm 0.00 in0.0 mm 0.00 in0.0 mm
03:10 PM 55.9°F13.3°C 46.3°F7.9°C 70% 4.1 mph SSW6.6 kmh SSW 6.0 mph9.7 kmh 30.21 in1023.0 mb 0.00 in0.0 mm 0.00 in0.0 mm 0.00 in0.0 mm
03:20 PM 55.4°F13.0°C 46.2°F7.9°C 71% 4.9 mph S7.9 kmh S 6.9 mph11.1 kmh 30.21 in1023.0 mb 0.00 in0.0 mm 0.00 in0.0 mm 0.00 in0.0 mm
03:30 PM 54.9°F12.7°C 46.0°F7.8°C 72% 4.5 mph SW7.2 kmh SW 7.6 mph12.2 kmh 30.20 in1022.7 mb 0.00 in0.0 mm 0.00 in0.0 mm 0.00 in0.0 mm
03:50 PM 54.1°F12.3°C 46.4°F8.0°C 75% 3.1 mph S5.0 kmh S 6.0 mph9.7 kmh 30.20 in1022.7 mb 0.00 in0.0 mm 0.00 in0.0 mm 0.00 in0.0 mm
03:53 PM 54.0°F12.2°C 46.2°F7.9°C 75% 3.2 mph S5.1 kmh S 5.4 mph8.7 kmh 30.21 in1023.0 mb 0.00 in0.0 mm 0.00 in0.0 mm 0.00 in0.0 mm
04:00 PM 54.0°F12.2°C 46.2°F7.9°C 75% 2.9 mph S4.7 kmh S 5.4 mph8.7 kmh 30.20 in1022.7 mb 0.00 in0.0 mm 0.00 in0.0 mm 0.00 in0.0 mm
04:10 PM 54.1°F12.3°C 46.4°F8.0°C 75% 2.3 mph S3.7 kmh S 3.8 mph6.1 kmh 30.20 in1022.7 mb 0.00 in0.0 mm 0.00 in0.0 mm 0.00 in0.0 mm
04:20 PM 54.1°F12.3°C 46.4°F8.0°C 75% 2.7 mph WSW4.3 kmh WSW 3.8 mph6.1 kmh 30.20 in1022.7 mb 0.00 in0.0 mm 0.00 in0.0 mm 0.00 in0.0 mm
04:30 PM 53.6°F12.0°C 45.5°F7.5°C 74% 4.1 mph SSW6.6 kmh SSW 6.0 mph9.7 kmh 30.20 in1022.7 mb 0.00 in0.0 mm 0.00 in0.0 mm 0.00 in0.0 mm
04:40 PM 53.4°F11.9°C 45.7°F7.6°C 75% 3.4 mph S5.5 kmh S 6.0 mph9.7 kmh 30.20 in1022.7 mb 0.00 in0.0 mm 0.00 in0.0 mm 0.00 in0.0 mm
04:50 PM 53.2°F11.8°C 45.5°F7.5°C 75% 3.7 mph S6.0 kmh S 5.4 mph8.7 kmh 30.20 in1022.7 mb 0.00 in0.0 mm 0.00 in0.0 mm 0.00 in0.0 mm
05:00 PM 52.9°F11.6°C 45.2°F7.3°C 75% 4.9 mph S7.9 kmh S 6.9 mph11.1 kmh 30.20 in1022.7 mb 0.00 in0.0 mm 0.00 in0.0 mm 0.00 in0.0 mm
05:10 PM 52.5°F11.4°C 44.8°F7.1°C 75% 5.2 mph SSW8.4 kmh SSW 7.6 mph12.2 kmh 30.19 in1022.4 mb 0.00 in0.0 mm 0.00 in0.0 mm 0.00 in0.0 mm
05:20 PM 52.3°F11.3°C 45.0°F7.2°C 76% 3.8 mph S6.1 kmh S 6.0 mph9.7 kmh 30.19 in1022.4 mb 0.00 in0.0 mm 0.00 in0.0 mm 0.00 in0.0 mm
05:30 PM 52.2°F11.2°C 44.8°F7.1°C 76% 3.4 mph S5.5 kmh S 5.4 mph8.7 kmh 30.20 in1022.7 mb 0.00 in0.0 mm 0.00 in0.0 mm 0.00 in0.0 mm
05:40 PM 52.0°F11.1°C 44.7°F7.1°C 76% 2.5 mph SSW4.0 kmh SSW 4.5 mph7.2 kmh 30.20 in1022.7 mb 0.00 in0.0 mm 0.00 in0.0 mm 0.00 in0.0 mm
05:50 PM 51.8°F11.0°C 44.5°F6.9°C 76% 3.6 mph SSW5.8 kmh SSW 3.8 mph6.1 kmh 30.20 in1022.7 mb 0.00 in0.0 mm 0.00 in0.0 mm 0.00 in0.0 mm
06:00 PM 51.6°F10.9°C 44.3°F6.8°C 76% 3.9 mph SSW6.3 kmh SSW 4.5 mph7.2 kmh 30.20 in1022.7 mb 0.00 in0.0 mm 0.00 in0.0 mm 0.00 in0.0 mm
06:10 PM 51.4°F10.8°C 44.1°F6.7°C 76% 3.1 mph S5.0 kmh S 5.4 mph8.7 kmh 30.21 in1023.0 mb 0.00 in0.0 mm 0.00 in0.0 mm 0.00 in0.0 mm
06:20 PM 51.1°F10.6°C 43.8°F6.6°C 76% 3.2 mph WSW5.1 kmh WSW 6.0 mph9.7 kmh 30.20 in1022.7 mb 0.00 in0.0 mm 0.00 in0.0 mm 0.00 in0.0 mm
06:30 PM 51.1°F10.6°C 43.8°F6.6°C 76% 2.8 mph S4.5 kmh S 5.4 mph8.7 kmh 30.20 in1022.7 mb 0.00 in0.0 mm 0.00 in0.0 mm 0.00 in0.0 mm
06:40 PM 50.9°F10.5°C 43.6°F6.4°C 76% 2.7 mph SSW4.3 kmh SSW 3.8 mph6.1 kmh 30.20 in1022.7 mb 0.00 in0.0 mm 0.00 in0.0 mm 0.00 in0.0 mm
06:50 PM 50.9°F10.5°C 43.6°F6.4°C 76% 2.7 mph SW4.3 kmh SW 3.8 mph6.1 kmh 30.20 in1022.7 mb 0.00 in0.0 mm 0.00 in0.0 mm 0.00 in0.0 mm
07:00 PM 50.7°F10.4°C 43.4°F6.3°C 76% 3.2 mph SW5.1 kmh SW 5.4 mph8.7 kmh 30.20 in1022.7 mb 0.00 in0.0 mm 0.00 in0.0 mm 0.00 in0.0 mm
07:10 PM 50.5°F10.3°C 43.6°F6.4°C 77% 3.8 mph SSW6.1 kmh SSW 6.0 mph9.7 kmh 30.20 in1022.7 mb 0.00 in0.0 mm 0.00 in0.0 mm 0.00 in0.0 mm
07:20 PM 50.5°F10.3°C 43.6°F6.4°C 77% 3.4 mph SW5.5 kmh SW 4.5 mph7.2 kmh 30.20 in1022.7 mb 0.00 in0.0 mm 0.00 in0.0 mm 0.00 in0.0 mm
07:30 PM 50.5°F10.3°C 43.6°F6.4°C 77% 2.1 mph S3.4 kmh S 3.8 mph6.1 kmh 30.20 in1022.7 mb 0.00 in0.0 mm 0.00 in0.0 mm 0.00 in0.0 mm
07:40 PM 50.5°F10.3°C 43.6°F6.4°C 77% 2.0 mph S3.2 kmh S 3.8 mph6.1 kmh 30.19 in1022.4 mb 0.00 in0.0 mm 0.00 in0.0 mm 0.00 in0.0 mm
07:50 PM 50.5°F10.3°C 43.6°F6.4°C 77% 1.3 mph SW2.1 kmh SW 3.1 mph5.0 kmh 30.20 in1022.7 mb 0.00 in0.0 mm 0.00 in0.0 mm 0.00 in0.0 mm
08:00 PM 50.4°F10.2°C 43.8°F6.6°C 78% 2.4 mph SSW3.9 kmh SSW 4.5 mph7.2 kmh 30.21 in1023.0 mb 0.00 in0.0 mm 0.00 in0.0 mm 0.00 in0.0 mm
08:10 PM 50.4°F10.2°C 43.8°F6.6°C 78% 1.0 mph NW1.6 kmh NW 2.2 mph3.5 kmh 30.20 in1022.7 mb 0.00 in0.0 mm 0.00 in0.0 mm 0.00 in0.0 mm
08:20 PM 50.4°F10.2°C 43.8°F6.6°C 78% 1.6 mph SW2.6 kmh SW 3.1 mph5.0 kmh 30.20 in1022.7 mb 0.00 in0.0 mm 0.00 in0.0 mm 0.00 in0.0 mm
08:30 PM 50.4°F10.2°C 43.8°F6.6°C 78% 1.4 mph SSW2.3 kmh SSW 2.2 mph3.5 kmh 30.19 in1022.4 mb 0.00 in0.0 mm 0.00 in0.0 mm 0.00 in0.0 mm
08:40 PM 50.2°F10.1°C 43.6°F6.4°C 78% 2.4 mph SW3.9 kmh SW 3.8 mph6.1 kmh 30.19 in1022.4 mb 0.00 in0.0 mm 0.00 in0.0 mm 0.00 in0.0 mm
08:50 PM 50.2°F10.1°C 43.9°F6.6°C 79% 2.0 mph S3.2 kmh S 3.1 mph5.0 kmh 30.19 in1022.4 mb 0.00 in0.0 mm 0.00 in0.0 mm 0.00 in0.0 mm
09:00 PM 50.2°F10.1°C 43.9°F6.6°C 79% 2.2 mph S3.5 kmh S 3.8 mph6.1 kmh 30.18 in1022.0 mb 0.00 in0.0 mm 0.00 in0.0 mm 0.00 in0.0 mm
09:10 PM 50.2°F10.1°C 43.9°F6.6°C 79% 1.5 mph S2.4 kmh S 3.8 mph6.1 kmh 30.19 in1022.4 mb 0.00 in0.0 mm 0.00 in0.0 mm 0.00 in0.0 mm
09:20 PM 50.0°F10.0°C 43.8°F6.6°C 79% 2.3 mph SW3.7 kmh SW 5.4 mph8.7 kmh 30.18 in1022.0 mb 0.00 in0.0 mm 0.00 in0.0 mm 0.00 in0.0 mm
09:30 PM 50.0°F10.0°C 43.8°F6.6°C 79% 2.7 mph SW4.3 kmh SW 3.8 mph6.1 kmh 30.17 in1021.7 mb 0.00 in0.0 mm 0.00 in0.0 mm 0.00 in0.0 mm
09:40 PM 50.0°F10.0°C 44.1°F6.7°C 80% 1.8 mph SW2.9 kmh SW 3.8 mph6.1 kmh 30.18 in1022.0 mb 0.00 in0.0 mm 0.00 in0.0 mm 0.00 in0.0 mm
09:50 PM 50.0°F10.0°C 44.1°F6.7°C 80% 2.3 mph SSW3.7 kmh SSW 3.1 mph5.0 kmh 30.17 in1021.7 mb 0.00 in0.0 mm 0.00 in0.0 mm 0.00 in0.0 mm
10:00 PM 50.0°F10.0°C 44.1°F6.7°C 80% 2.2 mph SSW3.5 kmh SSW 3.8 mph6.1 kmh 30.17 in1021.7 mb 0.00 in0.0 mm 0.00 in0.0 mm 0.00 in0.0 mm
10:10 PM 49.8°F9.9°C 43.9°F6.6°C 80% 2.9 mph SSW4.7 kmh SSW 5.4 mph8.7 kmh 30.17 in1021.7 mb 0.00 in0.0 mm 0.00 in0.0 mm 0.00 in0.0 mm
10:20 PM 49.8°F9.9°C 43.9°F6.6°C 80% 2.1 mph SW3.4 kmh SW 3.8 mph6.1 kmh 30.16 in1021.3 mb 0.00 in0.0 mm 0.00 in0.0 mm 0.00 in0.0 mm
10:30 PM 49.8°F9.9°C 43.9°F6.6°C 80% 2.4 mph SSW3.9 kmh SSW 3.1 mph5.0 kmh 30.16 in1021.3 mb 0.00 in0.0 mm 0.00 in0.0 mm 0.00 in0.0 mm
10:40 PM 49.8°F9.9°C 43.9°F6.6°C 80% 2.3 mph SSW3.7 kmh SSW 3.8 mph6.1 kmh 30.16 in1021.3 mb 0.00 in0.0 mm 0.00 in0.0 mm 0.00 in0.0 mm
10:50 PM 49.8°F9.9°C 43.9°F6.6°C 80% 2.9 mph S4.7 kmh S 3.8 mph6.1 kmh 30.15 in1021.0 mb 0.00 in0.0 mm 0.00 in0.0 mm 0.00 in0.0 mm
11:00 PM 49.8°F9.9°C 43.9°F6.6°C 80% 1.2 mph SSW1.9 kmh SSW 5.4 mph8.7 kmh 30.15 in1021.0 mb 0.00 in0.0 mm 0.00 in0.0 mm 0.00 in0.0 mm
11:10 PM 49.8°F9.9°C 43.9°F6.6°C 80% 2.2 mph SW3.5 kmh SW 3.1 mph5.0 kmh 30.15 in1021.0 mb 0.00 in0.0 mm 0.00 in0.0 mm 0.00 in0.0 mm
11:20 PM 49.6°F9.8°C 43.7°F6.5°C 80% 2.8 mph SW4.5 kmh SW 3.8 mph6.1 kmh 30.14 in1020.7 mb 0.00 in0.0 mm 0.00 in0.0 mm 0.00 in0.0 mm
11:30 PM 49.6°F9.8°C 43.7°F6.5°C 80% 2.1 mph SSW3.4 kmh SSW 3.8 mph6.1 kmh 30.14 in1020.7 mb 0.00 in0.0 mm 0.00 in0.0 mm 0.00 in0.0 mm
11:40 PM 49.6°F9.8°C 44.1°F6.7°C 81% 1.9 mph S3.1 kmh S 3.8 mph6.1 kmh 30.14 in1020.7 mb 0.00 in0.0 mm 0.00 in0.0 mm 0.00 in0.0 mm
11:50 PM 49.5°F9.7°C 43.9°F6.6°C 81% 2.6 mph SW4.2 kmh SW 3.8 mph6.1 kmh 30.14 in1020.7 mb 0.00 in0.0 mm 0.00 in0.0 mm 0.00 in0.0 mm